Pays
Station

 

Conditions  météo  pour  Launceston Airport  -  Australie    Australie

  
8 °C
    
 
 

METAR pour Launceston Airport :

YMLT 232202Z AUTO 13002KT 8000 // SCT006 OVC015 08/08 Q1022

 

Voici le bulletin pour Launceston Airport - Australie.
 
Le bulletin a été fait il y a 22 minutes, à 22:02 UTC .
Le vent soufflait à la vitesse de 1.0 mètres par seconde de Sud-est (130°).
 
La température était de 8 °C, avec un point de rosée à 8 °C.
La pression atmosphérique était de 1022 hPa.
L'humidité relative était de 100.0%.
 
Il y avait 3 à 4/8ème de nébulosité à une hauteur de 183 mètres. Le ciel était nuageux à partir d'une hauteur de 457 mètres
 
La visibilité globale était de 8.0 kilomètres.
 

 
 
 

Pays :   A   B   C   D   E   F   G   H   I   J   K   L   M   N   O   P   Q   R   S   T   U   V   W   Y   Z

 

Partenaires :  Info Météo avec Met'info
Météo Marine avec MeteoMarine.net
Infos Site  |  Infos Légales  |  Crédits  |  Confidentialité
Contactez-nous  |  Ajouter aux favoris
© 2013-2019 METAR - Tous droits réservés